createdAt,value
2018-12-24T00:01:46.138Z,0.40
2018-12-24T00:04:15.068Z,0.70
2018-12-24T00:06:44.057Z,0.90
2018-12-24T00:09:13.436Z,0.67
2018-12-24T00:11:42.502Z,0.83
2018-12-24T00:14:11.547Z,0.90
2018-12-24T00:16:40.978Z,0.87
2018-12-24T00:19:10.047Z,0.83
2018-12-24T00:21:39.363Z,0.70
2018-12-24T00:24:08.661Z,0.77
2018-12-24T00:26:37.726Z,1.10
2018-12-24T00:29:06.659Z,0.80
2018-12-24T00:31:35.898Z,0.80
2018-12-24T00:34:04.985Z,1.00
2018-12-24T00:36:34.113Z,0.90
2018-12-24T00:39:03.443Z,0.57
2018-12-24T00:41:32.511Z,0.60
2018-12-24T00:44:01.519Z,0.70
2018-12-24T00:46:30.828Z,0.80
2018-12-24T00:48:59.965Z,0.70
2018-12-24T00:51:28.980Z,0.67
2018-12-24T00:53:58.276Z,0.60
2018-12-24T00:56:27.338Z,0.70
2018-12-24T00:58:56.428Z,0.80
2018-12-24T01:01:25.678Z,0.80
2018-12-24T01:03:54.818Z,0.70
2018-12-24T01:06:23.864Z,1.00
2018-12-24T01:08:53.158Z,0.70
2018-12-24T01:11:22.270Z,0.70
2018-12-24T01:13:51.334Z,1.20
2018-12-24T01:16:20.534Z,0.77
2018-12-24T01:18:49.588Z,1.60
2018-12-24T01:21:18.740Z,0.90
2018-12-24T01:23:47.973Z,0.77
2018-12-24T01:26:17.054Z,0.50
2018-12-24T01:28:46.116Z,0.73
2018-12-24T01:31:15.422Z,0.90
2018-12-24T01:33:44.424Z,0.90
2018-12-24T01:36:13.398Z,0.53
2018-12-24T01:38:42.495Z,0.60
2018-12-24T01:41:11.566Z,0.60
2018-12-24T01:43:40.552Z,0.90
2018-12-24T01:46:09.787Z,0.40
2018-12-24T01:48:38.842Z,0.50
2018-12-24T01:51:08.145Z,0.60
2018-12-24T01:53:37.487Z,0.60
2018-12-24T01:56:06.488Z,0.30
2018-12-24T01:58:35.694Z,0.60
2018-12-24T02:01:04.662Z,0.53
2018-12-24T02:03:33.814Z,0.37
2018-12-24T02:06:03.003Z,0.53
2018-12-24T02:08:32.359Z,0.47
2018-12-24T02:11:01.410Z,0.60
2018-12-24T02:13:30.493Z,0.40
2018-12-24T02:15:59.960Z,0.50
2018-12-24T02:18:29.034Z,0.40
2018-12-24T02:20:58.022Z,0.60
2018-12-24T02:23:27.250Z,0.30
2018-12-24T02:25:56.325Z,0.40
2018-12-24T02:28:25.389Z,0.70
2018-12-24T02:30:54.619Z,0.50
2018-12-24T02:33:23.670Z,0.50
2018-12-24T02:35:52.799Z,1.00
2018-12-24T02:38:22.014Z,0.83
2018-12-24T02:40:51.097Z,0.80
2018-12-24T02:43:20.223Z,0.80
2018-12-24T02:45:49.511Z,1.00
2018-12-24T02:48:18.499Z,0.70
2018-12-24T02:50:47.589Z,0.83
2018-12-24T02:53:16.800Z,0.90
2018-12-24T02:55:45.955Z,0.80
2018-12-24T02:58:15.031Z,1.00
2018-12-24T03:00:44.406Z,0.90
2018-12-24T03:03:13.492Z,0.90
2018-12-24T03:05:42.559Z,0.83
2018-12-24T03:08:11.882Z,0.70
2018-12-24T03:10:41.036Z,0.77
2018-12-24T03:13:10.106Z,0.60
2018-12-24T03:15:39.476Z,0.57
2018-12-24T03:18:08.515Z,0.60
2018-12-24T03:20:37.617Z,0.90
2018-12-24T03:23:07.083Z,0.77
2018-12-24T03:25:36.107Z,0.50
2018-12-24T03:28:05.198Z,0.60
2018-12-24T03:30:34.322Z,0.80
2018-12-24T03:33:03.437Z,1.20
2018-12-24T03:35:32.601Z,0.80
2018-12-24T03:38:01.836Z,0.93
2018-12-24T03:40:31.024Z,0.80
2018-12-24T03:43:00.134Z,0.93
2018-12-24T03:45:29.252Z,0.87
2018-12-24T03:47:58.392Z,0.93
2018-12-24T03:50:27.458Z,1.03
2018-12-24T03:52:56.537Z,0.70
2018-12-24T03:55:25.663Z,0.80
2018-12-24T03:57:54.817Z,0.70
2018-12-24T04:00:26.369Z,0.80
2018-12-24T04:02:55.353Z,0.57
2018-12-24T04:05:24.384Z,1.07
2018-12-24T04:07:53.756Z,0.70
2018-12-24T04:10:22.744Z,0.60
2018-12-24T04:12:51.842Z,0.90
2018-12-24T04:15:21.029Z,0.70
2018-12-24T04:17:50.080Z,0.90
2018-12-24T04:20:19.093Z,0.50
2018-12-24T04:22:48.418Z,0.83
2018-12-24T04:25:17.501Z,0.63
2018-12-24T04:27:46.585Z,0.70
2018-12-24T04:30:15.809Z,0.67
2018-12-24T04:32:44.869Z,0.57
2018-12-24T04:35:13.848Z,0.57
2018-12-24T04:37:43.198Z,0.50
2018-12-24T04:40:12.247Z,0.57
2018-12-24T04:42:41.367Z,0.70
2018-12-24T04:45:10.597Z,0.67
2018-12-24T04:47:39.792Z,0.70
2018-12-24T04:50:08.869Z,0.70
2018-12-24T04:52:38.094Z,0.67
2018-12-24T04:55:07.229Z,0.50
2018-12-24T04:57:36.204Z,0.73
2018-12-24T05:00:13.814Z,0.60
2018-12-24T05:02:42.934Z,0.63
2018-12-24T05:05:11.938Z,0.80
2018-12-24T05:07:41.202Z,0.90
2018-12-24T05:10:10.272Z,0.80
2018-12-24T05:12:39.278Z,0.90
2018-12-24T05:15:08.413Z,0.70
2018-12-24T05:17:37.507Z,0.90
2018-12-24T05:20:06.556Z,1.40
2018-12-24T05:22:35.692Z,0.70
2018-12-24T05:25:04.960Z,1.07
2018-12-24T05:27:34.095Z,0.90
2018-12-24T05:30:03.560Z,0.80
2018-12-24T05:32:32.558Z,0.80
2018-12-24T05:35:01.555Z,0.50
2018-12-24T05:37:30.800Z,0.50
2018-12-24T05:39:59.796Z,0.60
2018-12-24T05:42:28.777Z,0.97
2018-12-24T05:44:57.982Z,0.87
2018-12-24T05:47:27.062Z,0.70
2018-12-24T05:49:56.087Z,0.70
2018-12-24T05:52:25.175Z,0.67
2018-12-24T05:54:54.241Z,0.70
2018-12-24T05:57:23.249Z,1.00
2018-12-24T05:59:52.487Z,0.80
2018-12-24T06:02:21.599Z,0.77
2018-12-24T06:04:50.726Z,0.70
2018-12-24T06:07:20.056Z,1.10
2018-12-24T06:09:49.122Z,0.70
2018-12-24T06:12:18.369Z,0.80
2018-12-24T06:14:47.653Z,0.43
2018-12-24T06:17:16.849Z,0.63
2018-12-24T06:19:45.804Z,0.60
2018-12-24T06:22:15.041Z,1.07
2018-12-24T06:24:44.179Z,0.60
2018-12-24T06:27:13.244Z,0.60
2018-12-24T06:29:42.532Z,0.87
2018-12-24T06:32:11.518Z,0.80
2018-12-24T06:34:40.738Z,0.80
2018-12-24T06:37:13.288Z,0.73
2018-12-24T06:39:42.420Z,0.93
2018-12-24T06:42:11.500Z,0.73
2018-12-24T06:44:40.782Z,0.97
2018-12-24T06:47:09.864Z,0.50
2018-12-24T06:49:40.492Z,0.60
2018-12-24T06:52:09.599Z,0.60
2018-12-24T06:54:38.861Z,0.60
2018-12-24T06:57:07.948Z,0.50
2018-12-24T06:59:37.211Z,0.60
2018-12-24T07:02:06.228Z,0.60
2018-12-24T07:04:35.248Z,0.50
2018-12-24T07:07:04.532Z,0.60
2018-12-24T07:09:33.664Z,0.60
2018-12-24T07:12:02.695Z,0.60
2018-12-24T07:14:32.007Z,0.47
2018-12-24T07:17:01.066Z,0.50
2018-12-24T07:19:30.219Z,0.60
2018-12-24T07:21:59.498Z,0.43
2018-12-24T07:24:28.573Z,0.40
2018-12-24T07:26:57.582Z,0.40
2018-12-24T07:29:26.963Z,0.40
2018-12-24T07:31:56.109Z,0.43
2018-12-24T07:34:32.422Z,0.50
2018-12-24T07:36:56.757Z,0.80
2018-12-24T07:39:25.833Z,0.60
2018-12-24T07:41:54.995Z,0.70
2018-12-24T07:44:24.604Z,0.93
2018-12-24T07:46:53.851Z,0.60
2018-12-24T07:49:22.927Z,0.93
2018-12-24T07:51:52.307Z,1.03
2018-12-24T07:54:21.312Z,0.60
2018-12-24T07:56:50.406Z,0.50
2018-12-24T07:59:19.797Z,0.60
2018-12-24T08:01:48.809Z,0.93
2018-12-24T08:04:17.888Z,0.50
2018-12-24T08:06:47.375Z,0.60
2018-12-24T08:09:16.493Z,0.80
2018-12-24T08:11:45.582Z,1.27
2018-12-24T08:14:14.971Z,0.70
2018-12-24T08:16:43.949Z,0.60
2018-12-24T08:19:13.048Z,0.50
2018-12-24T08:21:42.531Z,0.87
2018-12-24T08:24:11.544Z,0.70
2018-12-24T08:26:40.680Z,0.70
2018-12-24T08:29:10.157Z,0.40
2018-12-24T08:31:39.225Z,0.50
2018-12-24T08:34:08.309Z,0.90
2018-12-24T08:36:37.542Z,1.00
2018-12-24T08:39:07.524Z,1.20
2018-12-24T08:41:36.506Z,1.30
2018-12-24T08:44:05.778Z,1.60
2018-12-24T08:46:34.790Z,1.60
2018-12-24T08:49:03.862Z,1.97
2018-12-24T08:51:33.242Z,1.30
2018-12-24T08:54:02.330Z,1.27
2018-12-24T08:56:31.508Z,1.10
2018-12-24T08:59:00.732Z,1.00
2018-12-24T09:01:29.819Z,1.07
2018-12-24T09:03:58.887Z,0.80
2018-12-24T09:06:28.103Z,1.33
2018-12-24T09:08:57.096Z,1.90
2018-12-24T09:11:26.236Z,3.00
2018-12-24T09:13:55.485Z,2.63
2018-12-24T09:16:24.541Z,1.73
2018-12-24T09:18:53.639Z,2.57
2018-12-24T09:21:22.799Z,1.90
2018-12-24T09:23:51.845Z,2.10
2018-12-24T09:26:20.883Z,1.93
2018-12-24T09:28:50.189Z,1.60
2018-12-24T09:31:19.188Z,1.00
2018-12-24T09:33:48.243Z,0.80
2018-12-24T09:36:17.636Z,1.10
2018-12-24T09:38:46.715Z,0.80
2018-12-24T09:41:15.713Z,0.73
2018-12-24T09:43:44.961Z,0.90
2018-12-24T09:46:14.103Z,0.93
2018-12-24T09:48:43.171Z,0.77
2018-12-24T09:51:12.360Z,0.93
2018-12-24T09:53:41.424Z,1.20
2018-12-24T09:56:12.435Z,1.17
2018-12-24T09:58:41.514Z,1.10
2018-12-24T10:01:10.528Z,1.20
2018-12-24T10:03:49.709Z,0.83
2018-12-24T10:06:25.859Z,1.10
2018-12-24T10:08:55.051Z,1.40
2018-12-24T10:11:24.142Z,2.17
2018-12-24T10:13:53.291Z,2.07
2018-12-24T10:16:22.652Z,2.57
2018-12-24T10:18:51.745Z,2.07
2018-12-24T10:21:20.827Z,1.47
2018-12-24T10:23:51.412Z,1.73
2018-12-24T10:26:20.603Z,1.80
2018-12-24T10:28:49.658Z,1.30
2018-12-24T10:31:18.973Z,1.10
2018-12-24T10:33:51.164Z,1.10
2018-12-24T10:36:22.197Z,0.90
2018-12-24T10:38:51.278Z,0.97
2018-12-24T10:41:24.766Z,0.90
2018-12-24T10:43:53.921Z,1.57
2018-12-24T10:46:23.033Z,1.00
2018-12-24T10:48:52.352Z,0.93
2018-12-24T10:51:21.377Z,1.13
2018-12-24T10:53:50.336Z,1.00
2018-12-24T10:56:19.642Z,1.10
2018-12-24T10:58:48.702Z,1.20
2018-12-24T11:01:17.779Z,0.90
2018-12-24T11:03:47.045Z,1.00
2018-12-24T11:06:16.111Z,0.73
2018-12-24T11:08:45.192Z,0.90
2018-12-24T11:11:14.524Z,0.80
2018-12-24T11:13:43.552Z,0.80
2018-12-24T11:16:12.571Z,0.70
2018-12-24T11:18:41.849Z,1.20
2018-12-24T11:21:10.997Z,0.90
2018-12-24T11:23:40.055Z,1.00
2018-12-24T11:26:09.311Z,0.93
2018-12-24T11:28:38.395Z,0.93
2018-12-24T11:31:07.483Z,1.20
2018-12-24T11:33:36.605Z,0.97
2018-12-24T11:36:05.599Z,0.80
2018-12-24T11:38:34.609Z,1.17
2018-12-24T11:41:03.922Z,1.00
2018-12-24T11:43:33.005Z,1.77
2018-12-24T11:46:02.083Z,1.20
2018-12-24T11:48:31.481Z,1.13
2018-12-24T11:51:00.539Z,1.10
2018-12-24T11:53:29.643Z,1.20
2018-12-24T11:55:59.061Z,1.40
2018-12-24T11:58:28.124Z,2.20
2018-12-24T12:00:57.206Z,1.10
2018-12-24T12:03:30.879Z,1.30
2018-12-24T12:05:59.862Z,2.47
2018-12-24T12:08:28.916Z,1.60
2018-12-24T12:10:58.141Z,1.37
2018-12-24T12:13:27.274Z,2.23
2018-12-24T12:15:56.262Z,1.50
2018-12-24T12:18:25.628Z,1.30
2018-12-24T12:20:54.717Z,1.57
2018-12-24T12:23:23.795Z,1.70
2018-12-24T12:25:53.118Z,1.37
2018-12-24T12:28:22.094Z,1.30
2018-12-24T12:30:51.155Z,1.40
2018-12-24T12:33:21.038Z,1.00
2018-12-24T12:35:50.107Z,1.10
2018-12-24T12:38:19.210Z,1.10
2018-12-24T12:40:48.518Z,1.17
2018-12-24T12:43:17.624Z,1.20
2018-12-24T12:45:51.145Z,1.20
2018-12-24T12:48:17.847Z,1.27
2018-12-24T12:50:47.066Z,1.00
2018-12-24T12:53:16.062Z,0.83
2018-12-24T12:55:46.150Z,0.90
2018-12-24T12:58:15.271Z,0.93
2018-12-24T13:00:44.446Z,1.13
2018-12-24T13:03:13.743Z,1.00
2018-12-24T13:05:42.683Z,1.27
2018-12-24T13:08:11.838Z,1.20
2018-12-24T13:10:41.173Z,1.00
2018-12-24T13:13:10.260Z,1.10
2018-12-24T13:15:39.389Z,1.10
2018-12-24T13:18:08.625Z,1.10
2018-12-24T13:20:37.615Z,3.07
2018-12-24T13:23:06.833Z,1.60
2018-12-24T13:25:35.971Z,1.23
2018-12-24T13:28:05.130Z,1.57
2018-12-24T13:30:34.181Z,1.50
2018-12-24T13:33:03.503Z,1.00
2018-12-24T13:35:32.603Z,1.37
2018-12-24T13:38:01.818Z,2.10
2018-12-24T13:40:31.805Z,1.80
2018-12-24T13:43:00.957Z,2.63
2018-12-24T13:45:30.079Z,1.40
2018-12-24T13:47:59.209Z,1.77
2018-12-24T13:50:28.429Z,1.00
2018-12-24T13:52:57.531Z,1.27
2018-12-24T13:55:26.821Z,1.30
2018-12-24T13:57:55.900Z,1.47
2018-12-24T14:00:28.128Z,1.80
2018-12-24T14:02:57.219Z,2.97
2018-12-24T14:05:26.390Z,2.27
2018-12-24T14:07:55.757Z,3.10
2018-12-24T14:10:24.947Z,2.30
2018-12-24T14:12:54.023Z,2.67
2018-12-24T14:15:24.492Z,1.80
2018-12-24T14:17:53.626Z,1.83
2018-12-24T14:20:22.698Z,1.70
2018-12-24T14:22:51.711Z,1.60
2018-12-24T14:25:20.802Z,1.30
2018-12-24T14:27:49.910Z,1.53
2018-12-24T14:30:19.268Z,1.53
2018-12-24T14:32:48.434Z,1.63
2018-12-24T14:35:17.438Z,1.60
2018-12-24T14:37:47.061Z,1.30
2018-12-24T14:40:16.158Z,2.23
2018-12-24T14:42:45.288Z,1.87
2018-12-24T14:45:14.586Z,1.90
2018-12-24T14:47:44.910Z,1.80
2018-12-24T14:50:14.374Z,2.00
2018-12-24T14:52:43.774Z,2.23
2018-12-24T14:55:12.959Z,1.73
2018-12-24T14:57:42.524Z,2.00
2018-12-24T15:00:15.679Z,1.93
2018-12-24T15:02:44.803Z,1.90
2018-12-24T15:05:14.104Z,1.70
2018-12-24T15:07:43.475Z,1.43
2018-12-24T15:10:12.563Z,1.37
2018-12-24T15:12:41.488Z,1.37
2018-12-24T15:15:10.708Z,1.33
2018-12-24T15:17:39.848Z,1.17
2018-12-24T15:20:09.115Z,1.00
2018-12-24T15:22:38.393Z,1.33
2018-12-24T15:25:07.523Z,1.10
2018-12-24T15:27:36.643Z,1.60
2018-12-24T19:22:58.299Z,11.23
2018-12-24T19:25:27.403Z,10.27
2018-12-24T19:27:56.525Z,9.80
2018-12-24T19:32:46.137Z,8.40
2018-12-24T19:35:15.322Z,8.17
2018-12-24T19:37:44.442Z,9.67
2018-12-24T19:40:13.836Z,9.03
2018-12-24T19:42:42.966Z,7.43
2018-12-24T19:45:12.125Z,5.93
2018-12-24T19:47:49.688Z,5.57
2018-12-24T19:50:12.350Z,6.07
2018-12-24T19:52:42.870Z,5.83
2018-12-24T19:55:11.982Z,5.27
2018-12-24T19:57:41.025Z,4.83
2018-12-24T20:00:16.193Z,6.87
2018-12-24T20:02:45.519Z,7.93
2018-12-24T20:05:14.619Z,4.23
2018-12-24T20:07:43.817Z,4.13
2018-12-24T20:10:12.967Z,3.50
2018-12-24T20:12:42.173Z,3.97
2018-12-24T20:15:11.372Z,4.80
2018-12-24T20:17:40.473Z,5.97
2018-12-24T20:20:09.572Z,5.57
2018-12-24T20:22:38.912Z,6.50
2018-12-24T20:25:08.361Z,9.67
2018-12-24T20:27:37.456Z,12.57
2018-12-24T20:30:13.376Z,11.37
2018-12-24T20:32:42.499Z,12.30
2018-12-24T20:35:11.587Z,11.67
2018-12-24T20:37:40.784Z,10.80
2018-12-24T20:40:09.927Z,16.80
2018-12-24T20:42:39.024Z,11.67
2018-12-24T20:45:08.320Z,11.33
2018-12-24T20:47:37.442Z,7.00
2018-12-24T20:50:06.590Z,6.43
2018-12-24T20:52:35.774Z,2.90
2018-12-24T20:55:04.980Z,3.50
2018-12-24T20:57:34.170Z,4.50
2018-12-24T21:00:03.717Z,5.40
2018-12-24T21:02:32.911Z,6.63
2018-12-24T21:05:02.194Z,7.23
2018-12-24T21:07:31.275Z,6.53
2018-12-24T21:10:00.532Z,4.23
2018-12-24T21:12:29.622Z,3.17
2018-12-24T21:14:58.942Z,3.23
2018-12-24T21:17:28.169Z,2.37
2018-12-24T21:19:57.296Z,2.00
2018-12-24T21:22:26.452Z,2.50
2018-12-24T21:24:55.577Z,1.90
2018-12-24T21:27:24.691Z,1.87
2018-12-24T21:29:55.053Z,2.10
2018-12-24T21:32:24.091Z,2.80
2018-12-24T21:34:53.209Z,2.47
2018-12-24T21:37:22.642Z,2.73
2018-12-24T21:39:51.791Z,2.80
2018-12-24T21:42:21.187Z,2.93
2018-12-24T21:44:50.716Z,3.03
2018-12-24T21:47:26.331Z,2.93
2018-12-24T21:49:55.627Z,2.10
2018-12-24T21:52:24.963Z,2.20
2018-12-24T21:54:54.169Z,2.20
2018-12-24T21:57:25.481Z,1.80
2018-12-24T21:59:54.617Z,1.80
2018-12-24T22:02:23.908Z,1.80
2018-12-24T22:04:52.953Z,2.00
2018-12-24T22:07:21.975Z,1.83
2018-12-24T22:09:51.398Z,2.20
2018-12-24T22:12:20.997Z,2.53
2018-12-24T22:14:50.191Z,1.93
2018-12-24T22:17:19.651Z,2.57
2018-12-24T22:19:49.191Z,2.30
2018-12-24T22:22:18.979Z,2.37
2018-12-24T22:24:50.081Z,2.30
2018-12-24T22:27:19.214Z,2.33
2018-12-24T22:29:48.428Z,2.60
2018-12-24T22:32:17.643Z,2.80
2018-12-24T22:34:46.851Z,1.47
2018-12-24T22:37:16.098Z,1.73
2018-12-24T22:39:45.294Z,1.83
2018-12-24T22:42:14.389Z,4.83
2018-12-24T22:44:43.544Z,4.40
2018-12-24T22:47:13.048Z,4.63
2018-12-24T22:49:42.220Z,2.27
2018-12-24T22:52:11.360Z,1.40
2018-12-24T22:54:40.759Z,1.60
2018-12-24T22:57:09.927Z,1.53
2018-12-24T22:59:39.028Z,1.63
2018-12-24T23:02:08.230Z,1.23
2018-12-24T23:04:37.361Z,1.40
2018-12-24T23:07:06.570Z,1.40
2018-12-24T23:09:36.026Z,1.60
2018-12-24T23:12:05.238Z,1.70
2018-12-24T23:14:34.352Z,2.10
2018-12-24T23:17:03.690Z,1.90
2018-12-24T23:19:32.811Z,2.37
2018-12-24T23:22:02.080Z,2.00
2018-12-24T23:24:31.535Z,2.10
2018-12-24T23:27:00.833Z,2.00
2018-12-24T23:29:30.078Z,2.20
2018-12-24T23:31:59.328Z,1.80
2018-12-24T23:34:28.479Z,1.70
2018-12-24T23:36:57.576Z,1.70
2018-12-24T23:39:26.659Z,1.50
2018-12-24T23:41:55.774Z,1.40
2018-12-24T23:44:24.890Z,1.70
2018-12-24T23:46:54.141Z,1.50
2018-12-24T23:49:23.227Z,1.80
2018-12-24T23:51:52.451Z,1.40
2018-12-24T23:54:21.770Z,1.40
2018-12-24T23:56:50.917Z,1.60
2018-12-24T23:59:19.993Z,1.43
